createdAt,value
2017-09-17T00:01:04.652Z,101362.37
2017-09-17T00:03:33.717Z,101361.42
2017-09-17T00:06:02.012Z,101355.85
2017-09-17T00:08:30.316Z,101363.36
2017-09-17T00:10:58.604Z,101361.10
2017-09-17T00:13:27.661Z,101367.47
2017-09-17T00:15:55.951Z,101363.01
2017-09-17T00:18:24.243Z,101373.28
2017-09-17T00:20:52.544Z,101370.70
2017-09-17T00:23:21.604Z,101375.95
2017-09-17T00:25:49.891Z,101370.01
2017-09-17T00:28:18.191Z,101374.75
2017-09-17T00:30:46.484Z,101372.68
2017-09-17T00:33:15.534Z,101366.31
2017-09-17T00:35:43.839Z,101372.36
2017-09-17T00:38:12.147Z,101366.47
2017-09-17T00:40:41.200Z,101364.97
2017-09-17T00:43:09.508Z,101367.09
2017-09-17T00:45:37.798Z,101357.33
2017-09-17T00:48:06.091Z,101363.68
2017-09-17T00:50:35.156Z,101369.21
2017-09-17T00:53:03.443Z,101360.66
2017-09-17T00:55:31.733Z,101365.48
2017-09-17T00:58:00.036Z,101363.73
2017-09-17T01:00:29.100Z,101356.42
2017-09-17T01:02:57.407Z,101362.27
2017-09-17T01:05:25.738Z,101357.81
2017-09-17T01:07:54.019Z,101366.55
2017-09-17T01:10:22.307Z,101362.96
2017-09-17T01:12:50.704Z,101368.81
2017-09-17T01:15:18.973Z,101370.66
2017-09-17T01:17:47.276Z,101366.66
2017-09-17T01:20:15.564Z,101361.11
2017-09-17T01:22:43.852Z,101358.95
2017-09-17T01:25:12.189Z,101351.73
2017-09-17T01:27:40.511Z,101352.42
2017-09-17T01:30:08.800Z,101355.78
2017-09-17T01:32:37.104Z,101352.47
2017-09-17T01:35:05.410Z,101350.08
2017-09-17T01:37:33.694Z,101348.05
2017-09-17T01:40:01.998Z,101347.41
2017-09-17T01:42:31.075Z,101348.01
2017-09-17T01:44:59.373Z,101343.45
2017-09-17T01:47:27.687Z,101345.06
2017-09-17T01:49:55.970Z,101343.41
2017-09-17T01:52:24.252Z,101341.02
2017-09-17T01:54:52.563Z,101344.32
2017-09-17T01:57:20.851Z,101339.08
2017-09-17T01:59:49.141Z,101345.24
2017-09-17T02:02:17.431Z,101345.30
2017-09-17T02:04:45.727Z,101347.23
2017-09-17T02:07:14.075Z,101346.59
2017-09-17T02:09:42.386Z,101348.52
2017-09-17T02:12:11.439Z,101342.45
2017-09-17T02:14:40.484Z,101339.04
2017-09-17T02:17:08.775Z,101343.45
2017-09-17T02:19:37.067Z,101337.61
2017-09-17T02:22:05.373Z,101343.27
2017-09-17T02:24:34.419Z,101341.43
2017-09-17T02:27:02.695Z,101342.26
2017-09-17T02:29:31.004Z,101341.94
2017-09-17T02:31:59.292Z,101338.95
2017-09-17T02:34:27.598Z,101340.79
2017-09-17T02:36:56.678Z,101340.28
2017-09-17T02:39:24.973Z,101337.11
2017-09-17T02:41:54.019Z,101340.17
2017-09-17T02:44:22.331Z,101338.02
2017-09-17T02:46:50.626Z,101339.35
2017-09-17T02:49:19.686Z,101343.45
2017-09-17T02:51:47.994Z,101339.22
2017-09-17T02:54:16.284Z,101335.63
2017-09-17T02:56:44.582Z,101332.13
2017-09-17T02:59:13.669Z,101330.28
2017-09-17T03:01:41.957Z,101331.89
2017-09-17T03:04:11.037Z,101331.07
2017-09-17T03:06:39.344Z,101330.94
2017-09-17T03:09:08.404Z,101334.52
2017-09-17T03:11:36.687Z,101335.53
2017-09-17T03:14:04.990Z,101334.30
2017-09-17T03:16:33.285Z,101336.64
2017-09-17T03:19:02.371Z,101338.30
2017-09-17T03:21:30.665Z,101340.27
2017-09-17T03:23:59.729Z,101330.61
2017-09-17T03:26:28.050Z,101335.22
2017-09-17T03:28:57.098Z,101335.72
2017-09-17T03:31:25.390Z,101334.80
2017-09-17T03:33:53.680Z,101329.55
2017-09-17T03:36:21.980Z,101333.47
2017-09-17T03:38:51.041Z,101334.06
2017-09-17T03:41:19.329Z,101329.77
2017-09-17T03:43:47.633Z,101326.88
2017-09-17T03:46:15.915Z,101328.71
2017-09-17T03:48:44.972Z,101328.39
2017-09-17T03:51:13.260Z,101329.81
2017-09-17T03:53:41.550Z,101337.91
2017-09-17T03:56:09.848Z,101325.41
2017-09-17T03:58:38.154Z,101334.42
2017-09-17T04:01:07.211Z,101334.52
2017-09-17T04:03:35.511Z,101333.59
2017-09-17T04:06:03.808Z,101330.69
2017-09-17T04:08:32.864Z,101336.35
2017-09-17T04:11:01.151Z,101332.63
2017-09-17T04:13:29.439Z,101332.72
2017-09-17T04:15:57.722Z,101331.47
2017-09-17T04:18:26.003Z,101332.39
2017-09-17T04:20:54.308Z,101331.89
2017-09-17T04:23:23.436Z,101315.88
2017-09-17T04:25:51.720Z,101333.04
2017-09-17T04:28:20.019Z,101332.72
2017-09-17T04:30:48.315Z,101335.62
2017-09-17T04:33:16.607Z,101329.86
2017-09-17T04:35:44.895Z,101327.56
2017-09-17T04:38:13.194Z,101334.65
2017-09-17T04:40:42.260Z,101324.79
2017-09-17T04:43:10.551Z,101331.46
2017-09-17T04:45:39.620Z,101330.31
2017-09-17T04:48:07.912Z,101333.58
2017-09-17T04:50:36.199Z,101339.00
2017-09-17T04:53:04.507Z,101337.58
2017-09-17T04:55:32.799Z,101347.84
2017-09-17T04:58:01.851Z,101345.27
2017-09-17T05:00:30.148Z,101348.02
2017-09-17T05:02:58.458Z,101351.02
2017-09-17T05:05:27.536Z,101355.02
2017-09-17T05:07:55.830Z,101352.44
2017-09-17T05:10:24.116Z,101357.87
2017-09-17T05:12:53.189Z,101357.27
2017-09-17T05:15:21.487Z,101366.66
2017-09-17T05:17:49.771Z,101368.41
2017-09-17T05:20:18.839Z,101370.08
2017-09-17T05:22:47.131Z,101369.48
2017-09-17T05:25:15.436Z,101371.88
2017-09-17T05:27:44.491Z,101367.88
2017-09-17T05:30:12.785Z,101368.70
2017-09-17T05:32:41.099Z,101373.25
2017-09-17T05:35:10.159Z,101369.27
2017-09-17T05:37:38.468Z,101374.23
2017-09-17T05:40:06.774Z,101380.13
2017-09-17T05:42:35.829Z,101373.00
2017-09-17T05:45:04.129Z,101378.08
2017-09-17T05:47:32.435Z,101377.42
2017-09-17T05:50:01.490Z,101380.75
2017-09-17T05:52:29.789Z,101383.66
2017-09-17T05:54:58.122Z,101386.69
2017-09-17T05:57:26.413Z,101387.56
2017-09-17T05:59:54.706Z,101383.79
2017-09-17T06:02:23.013Z,101399.90
2017-09-17T06:04:51.306Z,101397.05
2017-09-17T06:07:20.356Z,101394.05
2017-09-17T06:09:48.667Z,101395.56
2017-09-17T06:12:16.962Z,101397.86
2017-09-17T06:14:45.263Z,101401.84
2017-09-17T06:17:14.330Z,101403.00
2017-09-17T06:19:42.614Z,101404.92
2017-09-17T06:22:10.908Z,101402.38
2017-09-17T06:24:39.197Z,101401.53
2017-09-17T06:27:08.252Z,101408.48
2017-09-17T06:29:36.572Z,101403.33
2017-09-17T06:32:05.633Z,101406.48
2017-09-17T06:34:33.911Z,101404.78
2017-09-17T06:37:02.226Z,101407.52
2017-09-17T06:39:30.524Z,101415.63
2017-09-17T06:41:59.579Z,101419.09
2017-09-17T06:44:27.884Z,101412.05
2017-09-17T06:46:56.961Z,101418.30
2017-09-17T06:49:25.253Z,101417.63
2017-09-17T06:51:53.550Z,101416.79
2017-09-17T06:54:22.655Z,101411.26
2017-09-17T06:56:51.710Z,101412.83
2017-09-17T06:59:20.007Z,101423.89
2017-09-17T07:01:48.305Z,101415.88
2017-09-17T07:04:16.591Z,101414.45
2017-09-17T07:06:44.875Z,101415.59
2017-09-17T07:09:13.933Z,101418.48
2017-09-17T07:11:42.245Z,101420.11
2017-09-17T07:14:10.530Z,101423.73
2017-09-17T07:16:38.834Z,101418.05
2017-09-17T07:19:07.904Z,101425.08
2017-09-17T07:21:36.195Z,101422.61
2017-09-17T07:24:05.281Z,101426.91
2017-09-17T07:26:33.590Z,101430.84
2017-09-17T07:29:02.657Z,101436.28
2017-09-17T07:31:30.951Z,101435.53
2017-09-17T07:33:59.254Z,101440.55
2017-09-17T07:36:28.311Z,101430.21
2017-09-17T07:38:56.602Z,101435.66
2017-09-17T07:41:24.896Z,101440.09
2017-09-17T07:43:53.944Z,101439.77
2017-09-17T07:46:22.246Z,101445.45
2017-09-17T07:48:50.537Z,101439.94
2017-09-17T07:51:18.827Z,101437.34
2017-09-17T07:53:47.114Z,101443.55
2017-09-17T07:56:15.413Z,101442.86
2017-09-17T07:58:44.476Z,101455.16
2017-09-17T08:01:12.770Z,101454.09
2017-09-17T08:03:41.073Z,101461.01
2017-09-17T08:06:10.127Z,101465.34
2017-09-17T08:08:38.415Z,101462.41
2017-09-17T08:11:06.721Z,101456.30
2017-09-17T08:13:35.004Z,101455.94
2017-09-17T08:16:03.293Z,101452.80
2017-09-17T08:18:32.370Z,101453.66
2017-09-17T08:21:00.674Z,101454.39
2017-09-17T08:23:29.725Z,101452.39
2017-09-17T08:25:58.029Z,101449.74
2017-09-17T08:28:26.323Z,101452.44
2017-09-17T08:30:54.624Z,101448.71
2017-09-17T08:33:22.939Z,101452.33
2017-09-17T08:35:51.244Z,101451.73
2017-09-17T08:38:19.541Z,101459.14
2017-09-17T08:40:47.851Z,101460.33
2017-09-17T08:43:16.161Z,101453.14
2017-09-17T08:45:44.461Z,101451.64
2017-09-17T08:48:12.761Z,101456.61
2017-09-17T08:50:41.066Z,101459.61
2017-09-17T08:53:10.110Z,101459.59
2017-09-17T08:55:38.404Z,101462.80
2017-09-17T08:58:06.732Z,101452.55
2017-09-17T09:00:35.809Z,101454.51
2017-09-17T09:03:04.104Z,101452.80
2017-09-17T09:05:33.179Z,101455.66
2017-09-17T09:08:01.463Z,101454.95
2017-09-17T09:10:29.748Z,101451.48
2017-09-17T09:12:58.046Z,101447.64
2017-09-17T09:15:27.092Z,101447.77
2017-09-17T09:17:55.403Z,101446.65
2017-09-17T09:20:23.689Z,101439.72
2017-09-17T09:22:51.974Z,101446.65
2017-09-17T09:25:20.283Z,101442.48
2017-09-17T09:27:49.346Z,101446.23
2017-09-17T09:30:17.639Z,101449.88
2017-09-17T09:32:45.956Z,101447.61
2017-09-17T09:35:14.250Z,101444.57
2017-09-17T09:37:42.547Z,101440.20
2017-09-17T09:40:10.851Z,101443.09
2017-09-17T09:42:39.141Z,101443.12
2017-09-17T09:45:07.439Z,101443.89
2017-09-17T09:47:36.513Z,101440.56
2017-09-17T09:50:04.793Z,101451.23
2017-09-17T09:52:33.089Z,101446.57
2017-09-17T09:55:01.378Z,101439.00
2017-09-17T09:57:30.459Z,101430.73
2017-09-17T09:59:58.760Z,101434.14
2017-09-17T10:02:27.819Z,101440.36
2017-09-17T10:04:56.138Z,101434.95
2017-09-17T10:07:25.213Z,101433.16
2017-09-17T10:09:53.524Z,101434.30
2017-09-17T10:12:22.608Z,101438.26
2017-09-17T10:14:51.669Z,101439.55
2017-09-17T10:17:19.975Z,101437.01
2017-09-17T10:19:48.264Z,101438.58
2017-09-17T10:22:16.558Z,101436.56
2017-09-17T10:24:45.622Z,101434.80
2017-09-17T10:27:13.910Z,101436.17
2017-09-17T10:29:42.204Z,101431.02
2017-09-17T10:32:10.508Z,101431.88
2017-09-17T10:34:39.567Z,101437.98
2017-09-17T10:37:07.863Z,101434.34
2017-09-17T10:39:36.163Z,101436.63
2017-09-17T10:42:05.217Z,101441.97
2017-09-17T10:44:33.508Z,101443.27
2017-09-17T10:47:01.803Z,101437.56
2017-09-17T10:49:30.092Z,101436.44
2017-09-17T10:51:58.392Z,101429.49
2017-09-17T10:54:27.473Z,101434.57
2017-09-17T10:56:55.770Z,101431.53
2017-09-17T10:59:24.838Z,101428.73
2017-09-17T11:01:53.149Z,101425.89
2017-09-17T11:04:22.202Z,101423.13
2017-09-17T11:06:50.508Z,101417.48
2017-09-17T11:09:18.799Z,101410.75
2017-09-17T11:11:47.864Z,101406.83
2017-09-17T11:14:16.939Z,101413.95
2017-09-17T11:16:45.243Z,101408.22
2017-09-17T11:19:13.533Z,101414.03
2017-09-17T11:21:42.607Z,101405.52
2017-09-17T11:24:10.896Z,101412.14
2017-09-17T11:26:39.193Z,101406.08
2017-09-17T11:29:07.507Z,101410.36
2017-09-17T11:31:36.567Z,101408.49
2017-09-17T11:34:04.853Z,101407.48
2017-09-17T11:36:33.173Z,101408.39
2017-09-17T11:39:02.225Z,101405.88
2017-09-17T11:41:30.520Z,101406.30
2017-09-17T11:43:58.840Z,101411.22
2017-09-17T11:46:27.906Z,101410.41
2017-09-17T11:48:56.213Z,101411.04
2017-09-17T11:51:25.266Z,101406.20
2017-09-17T11:53:53.553Z,101404.33
2017-09-17T11:56:21.843Z,101406.63
2017-09-17T11:58:50.142Z,101402.57
2017-09-17T12:01:18.445Z,101399.26
2017-09-17T12:03:46.745Z,101401.67
2017-09-17T12:06:15.042Z,101400.39
2017-09-17T12:08:43.341Z,101399.81
2017-09-17T12:11:11.636Z,101395.08
2017-09-17T12:13:39.923Z,101387.19
2017-09-17T12:16:08.213Z,101394.66
2017-09-17T12:18:36.496Z,101392.41
2017-09-17T12:21:04.796Z,101387.39
2017-09-17T12:23:33.089Z,101385.26
2017-09-17T12:26:01.372Z,101379.63
2017-09-17T12:28:29.675Z,101385.53
2017-09-17T12:30:57.983Z,101388.52
2017-09-17T12:33:26.273Z,101383.73
2017-09-17T12:35:54.575Z,101386.70
2017-09-17T12:38:23.626Z,101394.70
2017-09-17T12:40:51.908Z,101384.17
2017-09-17T12:43:20.196Z,101386.53
2017-09-17T12:45:48.501Z,101387.52
2017-09-17T12:48:16.796Z,101391.59
2017-09-17T12:50:45.843Z,101391.56
2017-09-17T12:53:14.140Z,101384.81
2017-09-17T12:55:42.426Z,101396.73
2017-09-17T12:58:10.730Z,101389.28
2017-09-17T13:00:39.025Z,101385.22
2017-09-17T13:03:08.078Z,101392.24
2017-09-17T13:05:36.386Z,101391.50
2017-09-17T13:08:04.681Z,101392.08
2017-09-17T13:10:33.735Z,101391.86
2017-09-17T13:13:02.033Z,101395.34
2017-09-17T13:15:30.333Z,101391.62
2017-09-17T13:17:59.384Z,101392.95
2017-09-17T13:20:27.701Z,101392.53
2017-09-17T13:22:55.990Z,101385.03
2017-09-17T13:25:24.284Z,101389.00
2017-09-17T13:27:53.345Z,101387.27
2017-09-17T13:30:22.404Z,101388.12
2017-09-17T13:32:50.705Z,101381.88
2017-09-17T13:35:19.010Z,101385.36
2017-09-17T13:37:47.292Z,101385.06
2017-09-17T13:40:15.588Z,101378.20
2017-09-17T13:42:43.892Z,101380.78
2017-09-17T13:45:12.947Z,101376.80
2017-09-17T13:47:41.223Z,101377.75
2017-09-17T13:50:09.521Z,101372.70
2017-09-17T13:52:37.828Z,101373.20
2017-09-17T13:55:06.883Z,101378.40
2017-09-17T13:57:35.168Z,101377.81
2017-09-17T14:00:04.276Z,101369.16
2017-09-17T14:02:48.415Z,101367.06
2017-09-17T14:05:16.700Z,101368.67
2017-09-17T14:10:51.379Z,101371.46
2017-09-17T14:13:19.678Z,101363.98
2017-09-17T14:15:47.964Z,101364.88
2017-09-17T14:18:16.255Z,101364.46
2017-09-17T14:20:44.567Z,101356.00
2017-09-17T14:23:12.863Z,101357.48
2017-09-17T14:25:41.907Z,101353.13
2017-09-17T14:28:10.203Z,101353.25
2017-09-17T14:30:38.502Z,101352.44
2017-09-17T14:33:06.793Z,101354.05
2017-09-17T14:35:35.083Z,101355.46
2017-09-17T14:38:04.147Z,101347.45
2017-09-17T14:40:32.427Z,101352.63
2017-09-17T14:43:00.715Z,101345.84
2017-09-17T14:45:29.038Z,101346.38
2017-09-17T14:47:58.079Z,101349.19
2017-09-17T14:50:26.378Z,101347.88
2017-09-17T14:52:54.725Z,101344.78
2017-09-17T14:55:23.027Z,101343.23
2017-09-17T14:57:51.376Z,101343.23
2017-09-17T15:00:19.662Z,101339.13
2017-09-17T15:02:47.955Z,101344.34
2017-09-17T15:05:16.249Z,101338.56
2017-09-17T15:07:44.532Z,101342.72
2017-09-17T15:10:12.818Z,101338.23
2017-09-17T15:12:41.098Z,101336.19
2017-09-17T15:15:09.384Z,101333.07
2017-09-17T15:17:37.681Z,101336.67
2017-09-17T15:20:05.971Z,101340.38
2017-09-17T15:22:34.282Z,101337.30
2017-09-17T15:25:02.586Z,101339.80
2017-09-17T15:27:30.874Z,101340.50
2017-09-17T15:29:59.163Z,101337.66
2017-09-17T15:32:27.443Z,101342.38
2017-09-17T15:34:55.727Z,101338.77
2017-09-17T15:37:24.014Z,101339.34
2017-09-17T15:39:52.327Z,101343.98
2017-09-17T15:42:21.396Z,101342.02
2017-09-17T15:44:49.696Z,101338.77
2017-09-17T15:47:17.983Z,101347.71
2017-09-17T15:49:46.281Z,101348.36
2017-09-17T15:52:15.323Z,101348.06
2017-09-17T15:54:43.602Z,101350.23
2017-09-17T15:57:11.893Z,101347.11
2017-09-17T15:59:40.190Z,101350.84
2017-09-17T16:02:08.482Z,101349.74
2017-09-17T16:04:36.765Z,101358.23
2017-09-17T16:07:05.054Z,101357.81
2017-09-17T16:09:34.115Z,101361.44
2017-09-17T16:12:02.412Z,101354.43
2017-09-17T16:14:30.702Z,101354.69
2017-09-17T16:16:58.996Z,101356.86
2017-09-17T16:19:28.046Z,101358.34
2017-09-17T16:21:56.347Z,101362.45
2017-09-17T16:24:24.639Z,101358.39
2017-09-17T16:26:52.921Z,101360.13
2017-09-17T16:29:21.216Z,101363.89
2017-09-17T16:31:49.512Z,101357.48
2017-09-17T16:34:18.698Z,101358.31
2017-09-17T16:36:46.990Z,101357.66
2017-09-17T16:39:16.061Z,101355.91
2017-09-17T16:41:44.362Z,101369.10
2017-09-17T16:44:13.419Z,101370.48
2017-09-17T16:46:41.708Z,101372.89
2017-09-17T16:49:09.997Z,101378.82
2017-09-17T16:51:38.310Z,101370.86
2017-09-17T16:54:07.371Z,101381.55
2017-09-17T16:56:35.656Z,101384.62
2017-09-17T16:59:03.987Z,101379.53
2017-09-17T17:01:33.040Z,101382.65
2017-09-17T17:04:01.329Z,101382.77
2017-09-17T17:06:29.623Z,101382.36
2017-09-17T17:08:57.910Z,101379.56
2017-09-17T17:11:26.967Z,101383.33
2017-09-17T17:13:55.254Z,101384.28
2017-09-17T17:16:24.311Z,101384.23
2017-09-17T17:18:52.599Z,101380.58
2017-09-17T17:21:20.888Z,101386.27
2017-09-17T17:23:49.184Z,101383.77
2017-09-17T17:26:17.467Z,101386.75
2017-09-17T17:28:45.759Z,101389.17
2017-09-17T17:31:14.058Z,101386.53
2017-09-17T17:33:42.344Z,101380.19
2017-09-17T17:36:10.634Z,101382.42
2017-09-17T17:38:39.698Z,101389.36
2017-09-17T17:41:07.981Z,101389.80
2017-09-17T17:43:36.255Z,101391.20
2017-09-17T17:46:04.560Z,101395.84
2017-09-17T17:48:32.867Z,101397.00
2017-09-17T17:51:01.929Z,101401.56
2017-09-17T17:53:30.223Z,101398.08
2017-09-17T17:55:58.498Z,101402.45
2017-09-17T17:58:26.787Z,101403.08
2017-09-17T18:00:55.061Z,101402.77
2017-09-17T18:03:23.357Z,101404.37
2017-09-17T18:05:52.434Z,101410.48
2017-09-17T18:08:20.741Z,101417.81
2017-09-17T18:10:49.796Z,101413.30
2017-09-17T18:13:18.084Z,101416.98
2017-09-17T18:15:46.377Z,101413.33
2017-09-17T18:18:14.657Z,101411.53
2017-09-17T18:20:42.936Z,101413.64
2017-09-17T18:23:11.215Z,101423.02
2017-09-17T18:25:39.506Z,101419.52
2017-09-17T18:28:07.808Z,101418.54
2017-09-17T18:30:36.870Z,101416.91
2017-09-17T18:33:05.169Z,101415.38
2017-09-17T18:35:33.447Z,101424.70
2017-09-17T18:38:01.755Z,101423.19
2017-09-17T18:40:30.795Z,101430.53
2017-09-17T18:42:59.085Z,101429.72
2017-09-17T18:45:27.371Z,101434.28
2017-09-17T18:47:55.658Z,101428.34
2017-09-17T18:50:29.405Z,101430.91
2017-09-17T18:52:58.447Z,101431.27
2017-09-17T18:55:26.742Z,101427.87
2017-09-17T18:57:55.024Z,101430.16
2017-09-17T19:00:23.316Z,101434.61
2017-09-17T19:02:51.618Z,101432.67
2017-09-17T19:05:19.908Z,101437.53
2017-09-17T19:07:48.971Z,101438.57
2017-09-17T19:10:17.277Z,101439.39
2017-09-17T19:12:46.358Z,101441.67
2017-09-17T19:15:14.652Z,101440.22
2017-09-17T19:17:43.712Z,101441.67
2017-09-17T19:20:11.999Z,101438.67
2017-09-17T19:22:40.324Z,101439.09
2017-09-17T19:25:09.392Z,101442.30
2017-09-17T19:27:37.728Z,101445.81
2017-09-17T19:30:06.036Z,101448.91
2017-09-17T19:32:34.327Z,101447.16
2017-09-17T19:35:02.662Z,101450.26
2017-09-17T19:37:31.750Z,101446.44
2017-09-17T19:40:00.834Z,101449.54
2017-09-17T19:42:29.212Z,101451.61
2017-09-17T19:44:57.514Z,101445.09
2017-09-17T19:47:26.607Z,101445.41
2017-09-17T19:49:54.896Z,101453.77
2017-09-17T19:52:23.945Z,101455.12
2017-09-17T19:54:52.263Z,101452.12
2017-09-17T19:57:20.566Z,101447.46
2017-09-17T19:59:49.650Z,101455.07
2017-09-17T20:02:18.730Z,101457.23
2017-09-17T20:04:47.028Z,101458.17
2017-09-17T20:07:16.096Z,101453.52
2017-09-17T20:09:44.394Z,101451.08
2017-09-17T20:12:12.684Z,101454.70
2017-09-17T20:14:40.985Z,101444.48
2017-09-17T20:17:10.072Z,101442.14
2017-09-17T20:19:39.132Z,101440.70
2017-09-17T20:22:08.206Z,101436.27
2017-09-17T20:24:36.501Z,101438.64
2017-09-17T20:27:04.789Z,101439.92
2017-09-17T20:29:33.079Z,101446.02
2017-09-17T20:32:01.377Z,101450.05
2017-09-17T20:34:29.667Z,101448.19
2017-09-17T20:36:57.962Z,101451.39
2017-09-17T20:39:27.022Z,101441.27
2017-09-17T20:41:55.331Z,101441.99
2017-09-17T20:44:23.629Z,101444.82
2017-09-17T20:46:52.699Z,101444.61
2017-09-17T20:49:20.984Z,101445.65
2017-09-17T20:51:49.293Z,101442.27
2017-09-17T20:54:18.368Z,101440.93
2017-09-17T20:56:46.670Z,101443.83
2017-09-17T20:59:15.742Z,101456.53
2017-09-17T21:01:44.032Z,101457.35
2017-09-17T21:04:12.331Z,101458.35
2017-09-17T21:06:41.396Z,101451.02
2017-09-17T21:09:09.708Z,101446.68
2017-09-17T21:11:38.763Z,101447.72
2017-09-17T21:14:07.061Z,101446.27
2017-09-17T21:16:35.376Z,101442.20
2017-09-17T21:19:04.451Z,101439.52
2017-09-17T21:21:32.731Z,101434.04
2017-09-17T21:24:01.027Z,101439.51
2017-09-17T21:26:30.089Z,101444.16
2017-09-17T21:28:58.387Z,101448.70
2017-09-17T21:31:26.695Z,101454.14
2017-09-17T21:33:55.747Z,101464.83
2017-09-17T21:36:24.026Z,101466.85
2017-09-17T21:38:52.326Z,101468.52
2017-09-17T21:41:20.614Z,101468.34
2017-09-17T21:43:48.921Z,101466.88
2017-09-17T21:46:17.972Z,101464.30
2017-09-17T21:48:46.266Z,101459.97
2017-09-17T21:51:14.566Z,101459.20
2017-09-17T21:53:43.624Z,101463.64
2017-09-17T21:56:11.919Z,101465.41
2017-09-17T21:58:40.237Z,101465.02
2017-09-17T22:01:09.361Z,101454.50
2017-09-17T22:03:37.651Z,101455.19
2017-09-17T22:06:05.945Z,101455.92
2017-09-17T22:08:34.235Z,101450.75
2017-09-17T22:11:02.536Z,101450.03
2017-09-17T22:13:32.334Z,101452.00
2017-09-17T22:16:00.634Z,101450.97
2017-09-17T22:18:28.929Z,101458.29
2017-09-17T22:20:57.227Z,101448.09
2017-09-17T22:23:26.281Z,101452.70
2017-09-17T22:25:54.571Z,101452.92
2017-09-17T22:28:22.865Z,101446.33
2017-09-17T22:30:51.200Z,101443.45
2017-09-17T22:33:19.498Z,101443.86
2017-09-17T22:35:47.793Z,101441.48
2017-09-17T22:38:16.121Z,101433.53
2017-09-17T22:40:44.421Z,101431.45
2017-09-17T22:43:12.705Z,101429.19
2017-09-17T22:45:41.014Z,101429.06
2017-09-17T22:48:09.324Z,101428.55
2017-09-17T22:50:38.387Z,101431.13
2017-09-17T22:53:06.703Z,101432.77
2017-09-17T22:55:35.012Z,101433.19
2017-09-17T22:58:03.322Z,101432.17
2017-09-17T23:00:31.633Z,101439.09
2017-09-17T23:02:59.957Z,101437.02
2017-09-17T23:05:28.239Z,101437.53
2017-09-17T23:07:56.532Z,101435.27
2017-09-17T23:10:24.818Z,101433.61
2017-09-17T23:12:53.149Z,101434.11
2017-09-17T23:15:21.443Z,101435.78
2017-09-17T23:17:50.496Z,101437.11
2017-09-17T23:20:18.817Z,101433.80
2017-09-17T23:22:47.108Z,101427.83
2017-09-17T23:25:16.184Z,101431.95
2017-09-17T23:27:44.495Z,101433.70
2017-09-17T23:30:13.554Z,101431.32
2017-09-17T23:32:41.847Z,101427.30
2017-09-17T23:35:10.145Z,101422.00
2017-09-17T23:37:39.200Z,101418.17
2017-09-17T23:40:07.489Z,101414.33
2017-09-17T23:42:35.799Z,101412.00
2017-09-17T23:45:04.852Z,101414.54
2017-09-17T23:47:33.166Z,101415.63
2017-09-17T23:50:01.472Z,101412.91
2017-09-17T23:52:30.528Z,101409.38
2017-09-17T23:54:58.847Z,101410.81
2017-09-17T23:57:27.909Z,101412.33
2017-09-17T23:59:56.195Z,101407.36
